Ancora, New Jersey
Current Conditions -  °F | °C
As of 1:54 AM on Friday 31 Oct 2014 (Local Time) from KACY Reporting Station
Clear Clear  
Wind Chill: 37°   Ceiling: Unl
Heat Index: 37°   Visibility: 10mi
Dew Point: 34°   Wind: 3mph
Humidity: 89%   Direction: 330°NNW
Pressure: 30.02"   Gusts: NA
Location:  39.637°N, 74.7602°W
Report Text: KACY 310554Z 33003KT 10SM CLR 03/01 A3002 RMK AO2 SLP166 T00280011 10083 20028 56004
Loading
Personal Weather Stations






























Interactive Weather Map
Tropical Storm Tracking
New forecast layout! Learn more

10-Day Weather Forecast

Advertisements
Track Severe Weather on mobile